Terminal Aerodrome Forecast
Issued by NWS

Current Version | Previous Version | Text Only | Print | Product List | Glossary On
Versions: 1 2 3 4 5 6 7 8 9 10 11 12 13 14 15 16 17 18 19 20 21
000
FTUS43 KBIS 021726
TAFDIK
TAF
KDIK 021726Z 0218/0318 25005KT P6SM -SN SCT015 SCT025 OVC040
      TEMPO 0219/0223 -SN OVC015
     FM030000 24005KT P6SM BKN040
     FM030600 21007KT P6SM SCT150
     FM031700 23011KT P6SM BKN150=

USA.gov is the U.S. government's official web portal to all federal, state and local government web resources and services.